Terminal Aerodrome Forecast
Issued by NWS

Home | Current Version | Previous Version | Text Only | Print | Product List | Glossary On
Versions: 1 2 3 4 5 6 7 8 9 10 11 12 13
000
FTUS43 KMPX 181720
TAFAXN
TAF
KAXN 181720Z 1818/1918 11012G20KT P6SM FEW200
     FM190000 11011KT P6SM OVC080
     FM190400 11012KT 6SM -RA OVC040
     FM190700 11015KT 4SM RA BR SCT008 OVC014
     FM191200 31013G21KT P6SM -RA OVC015=

USA.gov is the U.S. government's official web portal to all federal, state and local government web resources and services.